Time;durP1;ratioP1;P1;durP2;ratioP2;P2;SDS_P1;SDS_P2;PMS_P1;PMS_P2;Temp;Humidity;BMP_temperature;BMP_pressure;BME280_temperature;BME280_humidity;BME280_pressure;Samples;Min_cycle;Max_cycle;Signal;HPM_P1;HPM_P2
2022/11/01 00:01:14;;;;;;;17.50;5.82;;;13.30;1.00;;;;;;6254224;22;20024;-88
2022/11/01 00:04:01;;;;;;;10.35;5.53;;;13.10;1.00;;;;;;6255649;22;20074;-88
2022/11/01 00:06:49;;;;;;;14.27;5.85;;;13.00;34.40;;;;;;6255752;22;20374;-90
2022/11/01 00:09:36;;;;;;;16.83;6.20;;;13.00;52.70;;;;;;6275751;22;20028;-91
2022/11/01 00:12:23;;;;;;;11.55;6.28;;;13.00;59.40;;;;;;6276261;22;20099;-91
2022/11/01 00:15:13;;;;;;;13.57;6.75;;;12.90;80.00;;;;;;6255404;22;20350;-88
2022/11/01 00:18:00;;;;;;;12.45;6.88;;;12.80;99.90;;;;;;6278008;22;20473;-90
2022/11/01 00:20:48;;;;;;;16.77;7.32;;;12.60;99.90;;;;;;6276613;22;20435;-90
2022/11/01 00:23:36;;;;;;;15.30;7.53;;;12.50;99.90;;;;;;6279994;22;20016;-90
2022/11/01 00:26:24;;;;;;;20.92;8.35;;;12.40;99.90;;;;;;6260633;22;20313;-89
2022/11/01 00:29:11;;;;;;;15.23;7.60;;;12.20;99.90;;;;;;6276611;22;20416;-90
2022/11/01 00:32:01;;;;;;;15.32;8.55;;;12.10;99.90;;;;;;6283382;22;20028;-89
2022/11/01 00:34:48;;;;;;;11.90;8.13;;;12.00;99.90;;;;;;6284589;22;20039;-88
2022/11/01 00:37:36;;;;;;;18.00;8.48;;;11.90;99.90;;;;;;6280977;22;20038;-87
2022/11/01 00:40:23;;;;;;;22.48;8.95;;;11.70;1.00;;;;;;6278552;22;20039;-87
2022/11/01 00:43:12;;;;;;;15.18;7.78;;;11.70;1.00;;;;;;6256153;22;20020;-89
2022/11/01 00:46:00;;;;;;;14.45;7.55;;;11.50;41.50;;;;;;6256832;22;20020;-88
2022/11/01 00:48:47;;;;;;;18.27;8.55;;;11.50;99.90;;;;;;6277622;22;20027;-89
2022/11/01 00:51:34;;;;;;;19.67;8.27;;;11.40;99.90;;;;;;6280100;22;20107;-88
2022/11/01 00:54:21;;;;;;;16.85;8.52;;;11.40;99.90;;;;;;6278750;22;20023;-89
2022/11/01 00:57:11;;;;;;;14.77;7.97;;;11.40;99.90;;;;;;6258657;22;20028;-88
2022/11/01 00:59:58;;;;;;;15.85;8.05;;;11.40;99.90;;;;;;6281148;22;20308;-88
2022/11/01 01:02:45;;;;;;;17.48;8.80;;;11.30;99.90;;;;;;6279558;22;20079;-89
2022/11/01 01:05:33;;;;;;;16.48;7.85;;;11.30;1.00;;;;;;6279827;22;20172;-89
2022/11/01 01:08:21;;;;;;;15.93;7.47;;;11.30;1.00;;;;;;6280739;22;20023;-89
2022/11/01 01:11:08;;;;;;;14.98;7.88;;;11.30;1.00;;;;;;6281595;22;20074;-89
2022/11/01 01:13:56;;;;;;;17.85;7.53;;;11.30;1.00;;;;;;6280585;22;20305;-89
2022/11/01 01:16:43;;;;;;;16.60;7.85;;;11.30;1.00;;;;;;6281191;22;20047;-89
2022/11/01 01:19:30;;;;;;;25.27;8.38;;;11.40;1.00;;;;;;6281517;22;20020;-88
2022/11/01 01:22:18;;;;;;;15.88;7.47;;;11.30;9.80;;;;;;6262420;22;20028;-90
2022/11/01 01:25:08;;;;;;;12.88;7.82;;;11.20;74.30;;;;;;6284157;22;20055;-89
2022/11/01 01:27:55;;;;;;;18.45;8.05;;;11.20;99.90;;;;;;6283516;22;20095;-87
2022/11/01 01:30:43;;;;;;;14.85;8.07;;;11.10;99.90;;;;;;6280598;22;20079;-90
2022/11/01 01:33:30;;;;;;;22.17;8.68;;;11.10;99.90;;;;;;6281556;22;20016;-89
2022/11/01 01:36:19;;;;;;;18.25;7.70;;;11.00;1.00;;;;;;6280713;22;20034;-90
2022/11/01 01:39:06;;;;;;;21.60;8.15;;;11.00;1.00;;;;;;6279541;22;20039;-89
2022/11/01 01:41:57;;;;;;;22.55;7.68;;;10.90;64.10;;;;;;6278336;22;20319;-89
2022/11/01 01:44:50;;;;;;;15.43;7.80;;;10.90;99.90;;;;;;6278560;22;20097;-90
2022/11/01 01:47:39;;;;;;;15.23;7.85;;;10.90;1.00;;;;;;6279497;22;20043;-89
2022/11/01 01:50:33;;;;;;;19.00;8.63;;;10.90;1.00;;;;;;6277743;22;20055;-88
2022/11/01 01:53:35;;;;;;;13.35;7.07;;;10.90;25.50;;;;;;6256064;22;20027;-90
2022/11/01 01:56:35;;;;;;;12.07;7.13;;;11.00;99.90;;;;;;6277870;22;20050;-89
2022/11/01 01:59:22;;;;;;;15.07;7.60;;;11.10;99.90;;;;;;6256326;22;20165;-90
2022/11/01 02:02:10;;;;;;;14.80;8.05;;;11.10;99.90;;;;;;6277144;22;20110;-88
2022/11/01 02:05:07;;;;;;;18.23;7.88;;;11.20;1.00;;;;;;6283226;22;20090;-90
2022/11/01 02:07:58;;;;;;;19.40;8.55;;;11.30;99.90;;;;;;6288923;22;20093;-89
2022/11/01 02:10:48;;;;;;;17.80;8.35;;;11.40;99.90;;;;;;6287850;22;20348;-88
2022/11/01 02:13:36;;;;;;;13.95;6.88;;;11.50;1.00;;;;;;6284224;22;20027;-89
2022/11/01 02:16:39;;;;;;;19.10;7.20;;;11.70;99.90;;;;;;6256323;22;20024;-88
2022/11/01 02:20:07;;;;;;;14.23;6.75;;;11.90;1.00;;;;;;6278855;22;20078;-88
2022/11/01 02:23:15;;;;;;;14.27;7.03;;;12.10;99.90;;;;;;6198250;22;20023;-91
2022/11/01 02:26:16;;;;;;;14.68;6.85;;;12.20;99.90;;;;;;6278113;22;20042;-88
2022/11/01 02:29:11;;;;;;;13.18;6.95;;;12.20;1.00;;;;;;6276992;22;20038;-88
2022/11/01 02:32:11;;;;;;;20.38;7.20;;;12.20;1.00;;;;;;6277025;22;20024;-90
2022/11/01 02:35:21;;;;;;;16.98;6.20;;;12.30;1.00;;;;;;6276339;22;20077;-90
2022/11/01 02:38:33;;;;;;;19.10;7.15;;;12.30;99.90;;;;;;6276827;22;20030;-89
2022/11/01 02:41:39;;;;;;;14.30;7.30;;;12.30;99.90;;;;;;6278934;22;20034;-89
2022/11/01 02:44:36;;;;;;;12.25;6.00;;;12.40;99.90;;;;;;6255245;22;20127;-89
2022/11/01 02:47:27;;;;;;;15.63;6.97;;;12.50;99.90;;;;;;6278530;22;20380;-92
2022/11/01 02:50:16;;;;;;;12.05;5.82;;;12.70;99.90;;;;;;6277576;22;20081;-87
2022/11/01 02:53:04;;;;;;;11.52;5.60;;;12.90;99.90;;;;;;6258929;22;20036;-89
2022/11/01 02:55:52;;;;;;;15.80;6.68;;;12.90;99.90;;;;;;6279717;22;20430;-90
2022/11/01 02:58:42;;;;;;;18.85;6.45;;;13.00;74.40;;;;;;6277173;22;20069;-89
2022/11/01 03:01:33;;;;;;;20.05;6.15;;;13.10;22.10;;;;;;6280888;22;20034;-90
2022/11/01 03:04:23;;;;;;;17.23;6.45;;;13.10;1.00;;;;;;6256263;22;20024;-89
2022/11/01 03:07:12;;;;;;;21.08;5.90;;;13.10;1.00;;;;;;6277870;22;20095;-89
2022/11/01 03:10:00;;;;;;;17.25;5.60;;;13.10;1.00;;;;;;6256861;22;20034;-90
2022/11/01 03:13:01;;;;;;;11.30;5.78;;;13.10;1.00;;;;;;6277384;22;20098;-89
2022/11/01 03:15:59;;;;;;;15.30;5.35;;;13.20;1.00;;;;;;6284400;22;20039;-90
2022/11/01 03:19:02;;;;;;;14.18;5.20;;;13.30;1.00;;;;;;6286391;22;20028;-89
2022/11/01 03:22:30;;;;;;;12.88;5.32;;;13.40;1.00;;;;;;6277114;22;20416;-90
2022/11/01 03:25:39;;;;;;;13.23;5.30;;;13.50;1.00;;;;;;6270719;22;20400;-90
2022/11/01 03:28:36;;;;;;;9.27;4.18;;;13.70;1.00;;;;;;6277899;22;20035;-90
2022/11/01 03:31:36;;;;;;;13.90;4.65;;;13.80;1.00;;;;;;6276656;22;20102;-89
2022/11/01 03:34:25;;;;;;;16.65;4.85;;;14.10;1.00;;;;;;6276880;22;20032;-91
2022/11/01 03:37:16;;;;;;;16.88;4.70;;;14.40;1.00;;;;;;6276319;22;20315;-91
2022/11/01 03:40:05;;;;;;;14.60;4.53;;;14.50;99.90;;;;;;6255410;22;20100;-90
2022/11/01 03:42:57;;;;;;;11.07;4.55;;;14.60;99.90;;;;;;6256619;22;20020;-89
2022/11/01 03:45:46;;;;;;;21.15;4.60;;;14.70;99.90;;;;;;6256298;22;20356;-90
2022/11/01 03:48:38;;;;;;;11.80;4.38;;;14.70;99.90;;;;;;6276374;22;20106;-90
2022/11/01 03:51:25;;;;;;;15.90;4.72;;;14.70;99.90;;;;;;6256024;22;20085;-89
2022/11/01 03:54:15;;;;;;;18.67;4.43;;;14.70;99.90;;;;;;6277034;22;20114;-89
2022/11/01 03:57:02;;;;;;;10.13;4.30;;;14.70;99.90;;;;;;6257698;22;20027;-90
2022/11/01 03:59:49;;;;;;;12.00;5.03;;;14.70;99.90;;;;;;6259305;22;20121;-88
2022/11/01 04:02:39;;;;;;;13.93;5.68;;;14.60;99.90;;;;;;6280202;22;20020;-87
2022/11/01 04:05:30;;;;;;;13.27;5.05;;;14.60;99.90;;;;;;6277682;22;20020;-91
2022/11/01 04:08:17;;;;;;;10.85;4.30;;;14.50;99.90;;;;;;6276507;22;20031;-88
2022/11/01 04:11:05;;;;;;;13.77;4.72;;;14.50;99.90;;;;;;6285131;22;20108;-88
2022/11/01 04:20:31;;;;;;;13.05;4.70;;;14.40;99.90;;;;;;6279803;22;20098;-89
2022/11/01 04:23:10;;;;;;;9.20;4.50;;;14.40;99.90;;;;;;6279513;22;20026;-88
2022/11/01 04:25:58;;;;;;;11.20;3.88;;;14.40;99.90;;;;;;6279814;22;20039;-88
2022/11/01 04:28:55;;;;;;;11.32;3.97;;;14.40;99.90;;;;;;6281164;22;20463;-90
2022/11/01 04:31:43;;;;;;;12.48;3.88;;;14.40;99.90;;;;;;6282527;22;20028;-89
2022/11/01 04:34:45;;;;;;;8.35;3.90;;;14.30;99.90;;;;;;6283748;22;20030;-89
2022/11/01 04:37:32;;;;;;;10.73;4.07;;;14.50;99.90;;;;;;6279810;22;20016;-89
2022/11/01 04:40:19;;;;;;;13.07;3.85;;;14.50;99.90;;;;;;6262432;22;20103;-89
2022/11/01 04:43:06;;;;;;;12.93;3.75;;;14.50;99.90;;;;;;6288407;22;20047;-89
2022/11/01 04:45:55;;;;;;;7.53;3.13;;;14.50;99.90;;;;;;6289569;22;20024;-88
2022/11/01 04:48:42;;;;;;;6.13;3.30;;;14.50;99.90;;;;;;6289979;22;20020;-88
2022/11/01 04:51:31;;;;;;;7.28;3.30;;;14.40;99.90;;;;;;6278279;22;20141;-89
2022/11/01 04:54:23;;;;;;;9.50;3.25;;;14.40;99.90;;;;;;6278606;22;20034;-89
2022/11/01 04:57:21;;;;;;;8.88;2.70;;;14.40;99.90;;;;;;6258272;22;20104;-90
2022/11/01 05:00:13;;;;;;;12.38;3.40;;;14.40;99.90;;;;;;6279091;22;20102;-90
2022/11/01 05:03:06;;;;;;;6.63;3.22;;;14.40;99.90;;;;;;6277413;22;20031;-89
2022/11/01 05:05:59;;;;;;;7.45;3.22;;;14.40;1.00;;;;;;6279656;22;20095;-88
2022/11/01 05:08:46;;;;;;;4.78;1.95;;;14.50;1.00;;;;;;6279235;22;20415;-90
2022/11/01 05:11:34;;;;;;;5.95;2.40;;;14.60;1.00;;;;;;6277514;22;20031;-90
2022/11/01 05:14:21;;;;;;;4.20;2.13;;;14.60;1.00;;;;;;6279468;22;20027;-92
2022/11/01 05:17:08;;;;;;;3.97;2.20;;;14.60;1.00;;;;;;6280279;22;20483;-89
2022/11/01 05:19:55;;;;;;;3.72;1.95;;;14.70;1.00;;;;;;6281649;22;20095;-89
2022/11/01 05:22:42;;;;;;;3.17;2.13;;;14.70;1.00;;;;;;6290868;22;20019;-90
2022/11/01 05:25:31;;;;;;;5.53;1.95;;;14.70;1.00;;;;;;6288713;22;20065;-89
2022/11/01 05:28:23;;;;;;;3.40;1.98;;;14.60;1.00;;;;;;6259215;22;20031;-89
2022/11/01 05:31:10;;;;;;;6.05;1.90;;;14.70;1.00;;;;;;6279177;22;20384;-88
2022/11/01 05:33:57;;;;;;;4.10;1.70;;;14.50;1.00;;;;;;6279020;22;20059;-89
2022/11/01 05:36:44;;;;;;;4.38;1.65;;;14.40;11.70;;;;;;6279476;22;20178;-91
2022/11/01 05:39:31;;;;;;;5.05;1.77;;;14.10;99.90;;;;;;6256183;22;20027;-88
2022/11/01 05:42:19;;;;;;;3.85;2.03;;;14.00;99.90;;;;;;6278939;22;20380;-88
2022/11/01 05:45:06;;;;;;;3.35;1.85;;;13.80;99.90;;;;;;6257681;22;20110;-87
2022/11/01 05:47:53;;;;;;;8.98;2.30;;;13.70;1.00;;;;;;6257087;22;20323;-89
2022/11/01 05:50:42;;;;;;;7.07;2.50;;;13.60;1.00;;;;;;6279366;22;20030;-89
2022/11/01 05:53:29;;;;;;;3.00;1.85;;;13.50;99.90;;;;;;6257465;22;20023;-88
2022/11/01 05:56:17;;;;;;;6.95;2.20;;;13.40;99.90;;;;;;6277040;22;20469;-88
2022/11/01 05:59:04;;;;;;;6.53;2.40;;;13.40;99.90;;;;;;6278968;22;20409;-88
2022/11/01 06:01:57;;;;;;;4.28;2.20;;;13.40;1.00;;;;;;6283107;22;20027;-88
2022/11/01 06:04:46;;;;;;;1.85;1.50;;;13.40;1.00;;;;;;6282712;22;20023;-88
2022/11/01 06:07:35;;;;;;;3.60;1.90;;;13.30;1.00;;;;;;6279636;22;20091;-90
2022/11/01 06:10:22;;;;;;;4.05;1.65;;;13.30;99.90;;;;;;6278751;22;20042;-89
2022/11/01 06:13:10;;;;;;;4.32;1.98;;;13.30;99.90;;;;;;6278272;22;20028;-91
2022/11/01 06:16:01;;;;;;;4.80;2.05;;;13.20;99.90;;;;;;6279541;22;20054;-88
2022/11/01 06:18:49;;;;;;;2.93;2.07;;;13.10;1.00;;;;;;6278406;22;20031;-87
2022/11/01 06:21:38;;;;;;;2.95;1.88;;;13.10;99.90;;;;;;6280171;22;20441;-87
2022/11/01 06:24:25;;;;;;;3.90;2.03;;;13.10;1.00;;;;;;6255657;22;20019;-90
2022/11/01 06:27:13;;;;;;;4.03;2.38;;;13.10;99.90;;;;;;6276918;22;20323;-89
2022/11/01 06:30:03;;;;;;;5.43;2.20;;;13.00;99.90;;;;;;6280042;22;20323;-87
2022/11/01 06:32:50;;;;;;;3.58;1.90;;;13.00;11.10;;;;;;6260986;22;20299;-89
2022/11/01 06:35:40;;;;;;;2.25;1.52;;;13.00;99.90;;;;;;6279389;22;20110;-88
2022/11/01 06:38:27;;;;;;;4.45;2.17;;;13.00;99.90;;;;;;6278743;22;20125;-89
2022/11/01 06:41:16;;;;;;;2.53;2.00;;;13.10;99.90;;;;;;6278606;22;20107;-87
2022/11/01 06:44:04;;;;;;;3.67;1.98;;;13.10;99.90;;;;;;6277887;22;20098;-89
2022/11/01 06:46:53;;;;;;;3.38;2.00;;;13.10;99.90;;;;;;6277629;22;20020;-88
2022/11/01 06:49:40;;;;;;;5.57;2.78;;;13.10;99.90;;;;;;6276544;22;20326;-87
2022/11/01 06:52:27;;;;;;;10.73;2.15;;;13.10;99.90;;;;;;6256276;22;20024;-87
2022/11/01 06:55:14;;;;;;;3.50;1.73;;;13.10;99.90;;;;;;6255271;22;20038;-88
2022/11/01 06:58:02;;;;;;;3.55;1.60;;;13.20;99.90;;;;;;6256413;22;20051;-88
2022/11/01 07:00:50;;;;;;;3.15;1.58;;;13.20;99.90;;;;;;6276580;22;20027;-87
2022/11/01 07:03:37;;;;;;;2.40;1.80;;;13.20;22.90;;;;;;6278503;22;20061;-87
2022/11/01 07:06:27;;;;;;;4.97;2.00;;;13.20;99.90;;;;;;6280716;22;20030;-87
2022/11/01 07:09:19;;;;;;;2.60;1.60;;;13.20;99.90;;;;;;6282784;22;20140;-88
2022/11/01 07:12:06;;;;;;;3.90;2.30;;;13.20;99.90;;;;;;6279276;22;20024;-87
2022/11/01 07:14:53;;;;;;;2.20;1.30;;;13.20;99.90;;;;;;6276153;22;20039;-88
2022/11/01 07:17:46;;;;;;;4.18;1.42;;;13.20;99.90;;;;;;6274796;22;20031;-87
2022/11/01 07:20:40;;;;;;;3.75;1.40;;;13.30;99.90;;;;;;6275310;22;20311;-87
2022/11/01 07:23:28;;;;;;;1.23;1.13;;;13.30;99.90;;;;;;6276056;22;20091;-87
2022/11/01 07:26:20;;;;;;;1.67;1.25;;;13.30;99.90;;;;;;6276861;22;20032;-84
2022/11/01 07:29:07;;;;;;;1.83;1.00;;;13.40;99.90;;;;;;6274835;22;20035;-83
2022/11/01 07:31:54;;;;;;;1.88;1.02;;;13.40;11.70;;;;;;6278704;22;20325;-86
2022/11/01 07:34:41;;;;;;;2.80;1.02;;;13.40;1.00;;;;;;6276518;22;20028;-86
2022/11/01 07:37:29;;;;;;;1.85;1.00;;;13.50;99.90;;;;;;6254754;22;20484;-86
2022/11/01 07:40:17;;;;;;;3.97;1.00;;;13.50;99.90;;;;;;6276929;22;20035;-89
2022/11/01 07:43:05;;;;;;;2.75;1.15;;;13.60;1.00;;;;;;6278598;22;20019;-91
2022/11/01 07:49:50;;;;;;;1.52;1.10;;;13.70;1.00;;;;;;6157513;23;20291;-88
2022/11/01 08:17:04;;;;;;;2.47;1.20;;;14.40;1.00;;;;;;6158381;23;20101;-88
2022/11/01 08:21:04;;;;;;;4.00;0.90;;;14.40;1.00;;;;;;6070615;23;20109;-92
2022/11/01 08:53:04;;;;;;;1.23;0.60;;;14.90;99.90;;;;;;6214036;22;20028;-87
2022/11/01 09:00:28;;;;;;;1.05;0.50;;;15.00;60.80;;;;;;6246816;23;20004;-87
2022/11/01 09:27:37;;;;;;;1.38;0.50;;;16.00;1.00;;;;;;6245473;22;20291;-83
2022/11/01 13:00:59;;;;;;;3.38;1.40;;;19.60;63.70;;;;;;6246586;23;20012;-88
2022/11/01 13:13:09;;;;;;;5.22;2.03;;;17.40;99.90;;;;;;6251616;22;20004;-90
2022/11/01 17:37:07;;;;;;;3.47;2.20;;;13.10;99.90;;;;;;6190426;22;20299;-84
2022/11/01 17:39:54;;;;;;;5.10;1.73;;;13.00;99.90;;;;;;6241888;23;20402;-87
2022/11/01 17:42:44;;;;;;;13.57;2.22;;;12.90;99.90;;;;;;6243812;23;20024;-85
2022/11/01 17:45:48;;;;;;;3.97;2.45;;;12.80;99.90;;;;;;6243910;23;20311;-85
2022/11/01 17:48:54;;;;;;;6.53;1.98;;;12.70;99.90;;;;;;6244575;23;20028;-83
2022/11/01 17:51:42;;;;;;;7.30;2.50;;;12.70;99.90;;;;;;6245684;23;20020;-85
2022/11/01 17:54:36;;;;;;;7.07;1.80;;;12.70;99.90;;;;;;6244428;23;20133;-86
2022/11/01 17:57:25;;;;;;;4.88;2.00;;;12.70;99.90;;;;;;6247755;22;20046;-84
2022/11/01 18:00:15;;;;;;;4.63;2.15;;;12.60;99.90;;;;;;6238643;23;20099;-83
2022/11/01 18:03:13;;;;;;;4.85;2.03;;;12.60;99.90;;;;;;6245437;23;20020;-87
2022/11/01 18:06:12;;;;;;;7.65;2.65;;;12.60;99.90;;;;;;6245043;23;20020;-85
2022/11/01 18:09:00;;;;;;;6.18;2.83;;;12.50;99.90;;;;;;6244013;23;20024;-86
2022/11/01 18:11:53;;;;;;;5.43;2.40;;;12.50;99.90;;;;;;6238084;23;20020;-85
2022/11/01 18:15:01;;;;;;;8.63;2.38;;;12.50;99.90;;;;;;6241407;23;20020;-86
2022/11/01 18:18:26;;;;;;;5.78;2.10;;;12.50;99.90;;;;;;6245252;23;20050;-84
2022/11/01 18:21:51;;;;;;;7.72;2.47;;;12.40;99.90;;;;;;6241546;23;20032;-85
2022/11/01 18:24:56;;;;;;;4.68;2.20;;;12.30;99.90;;;;;;6245212;23;20092;-87
2022/11/01 18:27:44;;;;;;;5.93;1.88;;;12.30;99.90;;;;;;6266600;22;20112;-82
2022/11/01 18:30:31;;;;;;;5.55;2.13;;;12.40;99.90;;;;;;6243234;23;20103;-83
2022/11/01 18:33:29;;;;;;;8.55;1.98;;;12.40;99.90;;;;;;6242554;23;20028;-83
2022/11/01 18:36:28;;;;;;;5.38;1.90;;;12.40;99.90;;;;;;6243107;23;20028;-83
2022/11/01 18:39:28;;;;;;;5.95;2.28;;;12.40;99.90;;;;;;6251141;22;20042;-85
2022/11/01 18:42:15;;;;;;;4.15;1.75;;;12.40;99.90;;;;;;6273658;22;20598;-84
2022/11/01 18:45:34;;;;;;;6.28;1.83;;;12.30;99.90;;;;;;6273708;22;20023;-86
2022/11/01 18:48:43;;;;;;;4.00;2.00;;;12.30;99.90;;;;;;6274429;22;20304;-84
2022/11/01 18:51:32;;;;;;;8.85;2.20;;;12.20;99.90;;;;;;6275563;22;20024;-83
2022/11/01 18:54:31;;;;;;;8.77;2.00;;;12.10;99.90;;;;;;6274772;22;20034;-84
2022/11/01 18:57:23;;;;;;;6.82;1.80;;;12.10;99.90;;;;;;6275161;22;20039;-86
2022/11/01 19:00:12;;;;;;;6.65;1.75;;;12.10;99.90;;;;;;6273670;22;20382;-84
2022/11/01 19:03:01;;;;;;;8.35;1.83;;;12.10;99.90;;;;;;6251506;22;20024;-84
2022/11/01 19:05:49;;;;;;;7.07;2.05;;;12.10;99.90;;;;;;6273852;22;20354;-85
2022/11/01 19:08:38;;;;;;;5.00;1.58;;;12.10;99.90;;;;;;6274516;22;20375;-84
2022/11/01 19:11:26;;;;;;;6.03;1.88;;;12.10;99.90;;;;;;6274066;22;20047;-83
2022/11/01 19:14:20;;;;;;;10.82;2.83;;;12.20;99.90;;;;;;6273749;22;20303;-83
2022/11/01 19:17:22;;;;;;;13.75;2.65;;;12.20;99.90;;;;;;6274618;22;20027;-83
2022/11/01 19:20:26;;;;;;;7.13;2.05;;;12.20;99.90;;;;;;6274612;22;20407;-85
2022/11/01 19:23:20;;;;;;;8.70;1.52;;;12.30;99.90;;;;;;6274368;22;20070;-84
2022/11/01 19:26:37;;;;;;;7.32;1.33;;;12.20;99.90;;;;;;6254069;22;20028;-82
2022/11/01 19:29:29;;;;;;;9.27;1.73;;;12.20;99.90;;;;;;6274644;22;20326;-81
2022/11/01 19:32:20;;;;;;;7.05;1.95;;;12.20;99.90;;;;;;6251994;22;20031;-82
2022/11/01 19:35:12;;;;;;;10.65;1.98;;;12.30;99.90;;;;;;6274430;22;20030;-85
2022/11/01 19:38:14;;;;;;;6.78;1.70;;;12.20;99.90;;;;;;6274428;22;20027;-85
2022/11/01 19:41:02;;;;;;;9.95;2.05;;;12.20;99.90;;;;;;6274043;22;20066;-84
2022/11/01 19:43:50;;;;;;;9.60;1.77;;;12.10;99.90;;;;;;6254101;22;20020;-83
2022/11/01 19:46:38;;;;;;;8.48;2.10;;;12.10;99.90;;;;;;6252502;22;20036;-84
2022/11/01 19:49:28;;;;;;;6.72;1.90;;;12.00;99.90;;;;;;6276274;22;20024;-85
2022/11/01 19:52:28;;;;;;;6.53;1.58;;;11.90;99.90;;;;;;6275487;22;20089;-85
2022/11/01 19:55:35;;;;;;;12.40;2.30;;;11.80;99.90;;;;;;6275622;22;20027;-85
2022/11/01 19:58:44;;;;;;;8.55;2.97;;;11.70;99.90;;;;;;6272822;22;20047;-85
2022/11/01 20:01:45;;;;;;;4.72;1.85;;;11.70;99.90;;;;;;6286735;22;20028;-85
2022/11/01 20:04:35;;;;;;;9.30;1.73;;;11.50;99.90;;;;;;6283108;22;20020;-85
2022/11/01 20:07:27;;;;;;;8.65;2.05;;;11.40;99.90;;;;;;6275538;22;20296;-84
2022/11/01 20:10:14;;;;;;;8.82;2.80;;;11.30;99.90;;;;;;6275775;22;20123;-84
2022/11/01 20:13:02;;;;;;;10.93;3.20;;;11.30;99.90;;;;;;6275617;22;20034;-84
2022/11/01 20:15:50;;;;;;;9.77;3.05;;;11.20;99.90;;;;;;6254792;22;20034;-84
2022/11/01 20:18:43;;;;;;;8.57;3.15;;;11.10;99.90;;;;;;6275737;22;20027;-85
2022/11/01 20:21:30;;;;;;;7.40;2.65;;;11.10;99.90;;;;;;6255572;22;20035;-85
2022/11/01 20:24:18;;;;;;;9.93;2.50;;;11.00;99.90;;;;;;6253010;22;20023;-83
2022/11/01 20:27:06;;;;;;;6.63;2.03;;;11.00;99.90;;;;;;6253180;22;20024;-84
2022/11/01 20:29:56;;;;;;;5.45;2.33;;;11.00;99.90;;;;;;6276759;22;20169;-84
2022/11/01 20:32:43;;;;;;;10.60;2.83;;;10.90;99.90;;;;;;6275218;22;20334;-81
2022/11/01 20:35:32;;;;;;;12.35;2.33;;;10.90;1.00;;;;;;6275303;22;20296;-85
2022/11/01 20:38:19;;;;;;;9.35;2.50;;;10.80;1.00;;;;;;6274467;22;20303;-84
2022/11/01 20:41:11;;;;;;;8.10;2.92;;;10.70;1.00;;;;;;6254095;22;20038;-85
2022/11/01 20:44:01;;;;;;;7.50;1.83;;;10.70;1.00;;;;;;6254073;22;20050;-84
2022/11/01 20:46:49;;;;;;;12.85;3.03;;;10.60;1.00;;;;;;6275872;22;20023;-85
2022/11/01 20:49:37;;;;;;;16.85;2.65;;;10.50;1.00;;;;;;6274384;22;20342;-84
2022/11/01 20:52:27;;;;;;;10.82;2.47;;;10.50;1.00;;;;;;6274746;22;20023;-83
2022/11/01 20:55:34;;;;;;;11.35;2.60;;;10.40;1.00;;;;;;6274549;22;20027;-83
2022/11/01 20:58:21;;;;;;;9.00;2.33;;;10.40;1.00;;;;;;6255210;22;20101;-84
2022/11/01 21:01:16;;;;;;;5.97;2.78;;;10.20;1.00;;;;;;6253770;22;20020;-84
2022/11/01 21:04:11;;;;;;;14.85;4.50;;;10.00;1.00;;;;;;6276046;22;20309;-84
2022/11/01 21:07:02;;;;;;;9.77;2.45;;;9.90;13.10;;;;;;6276795;22;20358;-85
2022/11/01 21:09:52;;;;;;;7.15;3.00;;;9.90;85.80;;;;;;6276970;22;20020;-84
2022/11/01 21:12:46;;;;;;;11.23;2.60;;;9.80;99.90;;;;;;6255484;22;20028;-85
2022/11/01 21:15:38;;;;;;;9.55;2.75;;;9.60;99.90;;;;;;6276185;22;20030;-84
2022/11/01 21:18:42;;;;;;;9.50;2.63;;;9.40;99.90;;;;;;6255588;22;20080;-84
2022/11/01 21:21:41;;;;;;;12.55;2.78;;;9.40;99.90;;;;;;6276792;22;20514;-83
2022/11/01 21:24:43;;;;;;;16.17;3.45;;;9.40;99.90;;;;;;6276622;22;20326;-84
2022/11/01 21:27:32;;;;;;;11.73;5.18;;;9.30;99.90;;;;;;6256048;22;20023;-83
2022/11/01 21:30:20;;;;;;;16.00;5.63;;;9.40;99.90;;;;;;6277487;22;20020;-84
2022/11/01 21:33:37;;;;;;;16.77;5.68;;;9.30;99.90;;;;;;6276684;22;20023;-83
2022/11/01 21:36:29;;;;;;;16.85;5.93;;;9.20;1.00;;;;;;6277668;22;20307;-84
2022/11/01 21:39:32;;;;;;;11.30;6.20;;;9.10;1.00;;;;;;6275634;22;20027;-83
2022/11/01 21:42:26;;;;;;;13.40;5.43;;;9.00;1.00;;;;;;6275408;22;20047;-83
2022/11/01 21:45:33;;;;;;;15.02;4.68;;;9.00;1.00;;;;;;6275081;22;20049;-84
2022/11/01 21:48:28;;;;;;;6.10;3.38;;;9.10;91.80;;;;;;6256690;22;20024;-84
2022/11/01 21:51:16;;;;;;;8.18;2.47;;;9.20;99.90;;;;;;6277138;22;20085;-83
2022/11/01 21:54:04;;;;;;;12.43;2.97;;;9.30;99.90;;;;;;6255740;22;20023;-84
2022/11/01 21:56:51;;;;;;;6.20;2.13;;;9.40;99.90;;;;;;6275957;22;20028;-83
2022/11/01 21:59:46;;;;;;;10.25;2.63;;;9.60;99.90;;;;;;6255940;22;20462;-84
2022/11/01 22:02:34;;;;;;;8.27;2.72;;;9.60;99.90;;;;;;6276233;22;20027;-84
2022/11/01 22:05:33;;;;;;;8.95;2.60;;;9.50;79.70;;;;;;6278308;22;20020;-87
2022/11/01 22:08:23;;;;;;;7.75;2.78;;;9.40;68.20;;;;;;6281873;22;20020;-85
2022/11/01 22:11:12;;;;;;;12.60;3.70;;;9.40;71.40;;;;;;6259093;22;20091;-86
2022/11/01 22:13:59;;;;;;;11.50;3.00;;;9.30;99.90;;;;;;6281216;22;20314;-85
2022/11/01 22:16:49;;;;;;;11.80;2.92;;;9.30;99.90;;;;;;6280989;22;20020;-85
2022/11/01 22:19:36;;;;;;;7.22;3.20;;;9.20;99.90;;;;;;6282643;22;20027;-85
2022/11/01 22:22:23;;;;;;;11.57;3.38;;;8.90;99.90;;;;;;6282134;22;20399;-84
2022/11/01 22:25:11;;;;;;;13.50;4.70;;;8.70;99.90;;;;;;6281246;22;20109;-84
2022/11/01 22:28:01;;;;;;;10.07;4.30;;;8.60;99.90;;;;;;6280926;22;20028;-85
2022/11/01 22:30:48;;;;;;;11.27;4.35;;;8.40;99.90;;;;;;6278777;22;20020;-85
2022/11/01 22:33:37;;;;;;;12.57;4.35;;;8.20;1.00;;;;;;6276986;22;20023;-85
2022/11/01 22:36:28;;;;;;;18.50;4.65;;;8.10;1.00;;;;;;6277492;22;20027;-84
2022/11/01 22:39:21;;;;;;;11.75;4.32;;;7.90;99.90;;;;;;6253972;22;20316;-84
2022/11/01 22:42:16;;;;;;;10.82;3.88;;;7.80;99.90;;;;;;6276373;22;20035;-84
2022/11/01 22:45:14;;;;;;;13.57;3.88;;;7.70;1.00;;;;;;6274951;22;20346;-84
2022/11/01 22:48:14;;;;;;;14.77;4.28;;;7.60;1.00;;;;;;6274477;22;20074;-84
2022/11/01 22:51:01;;;;;;;17.55;4.07;;;7.50;99.90;;;;;;6275183;22;20098;-84
2022/11/01 22:53:53;;;;;;;10.55;3.53;;;7.50;1.00;;;;;;6275542;22;20102;-84
2022/11/01 22:56:44;;;;;;;15.45;4.82;;;7.40;99.90;;;;;;6274330;22;20030;-84
2022/11/01 22:59:34;;;;;;;14.93;4.13;;;7.30;1.00;;;;;;6274868;22;20051;-84
2022/11/01 23:02:28;;;;;;;18.17;4.57;;;7.30;99.90;;;;;;6254175;22;20085;-83
2022/11/01 23:05:24;;;;;;;10.98;4.65;;;7.20;99.90;;;;;;6276257;22;20039;-84
2022/11/01 23:08:26;;;;;;;18.65;4.80;;;7.10;99.90;;;;;;6276299;22;20034;-84
2022/11/01 23:14:34;;;;;;;10.60;5.00;;;6.90;1.00;;;;;;6252830;22;20042;-83
2022/11/01 23:14:36;;;;;;;19.88;5.18;;;6.80;1.00;;;;;;6273356;22;20031;-84
2022/11/01 23:17:45;;;;;;;13.15;5.55;;;7.00;1.00;;;;;;6253502;22;20028;-84
2022/11/01 23:20:39;;;;;;;19.45;6.13;;;7.10;99.90;;;;;;6251923;22;20051;-84
2022/11/01 23:23:26;;;;;;;14.00;5.90;;;7.00;99.90;;;;;;6273423;22;20485;-84
2022/11/01 23:26:16;;;;;;;22.20;6.93;;;6.90;99.90;;;;;;6252840;22;20024;-84
2022/11/01 23:29:03;;;;;;;15.70;6.00;;;6.80;99.90;;;;;;6274645;22;20024;-84
2022/11/01 23:31:51;;;;;;;13.77;5.68;;;6.60;99.90;;;;;;6275132;22;20422;-84
2022/11/01 23:34:39;;;;;;;12.90;6.05;;;6.50;1.00;;;;;;6275130;22;20042;-83
2022/11/01 23:37:26;;;;;;;12.77;5.65;;;6.50;1.00;;;;;;6252478;22;20081;-83
2022/11/01 23:40:20;;;;;;;16.08;5.60;;;6.40;1.00;;;;;;6275067;22;20113;-84
2022/11/01 23:43:20;;;;;;;15.93;5.80;;;6.40;61.30;;;;;;6253072;22;20109;-84
2022/11/01 23:46:11;;;;;;;15.23;5.53;;;6.40;99.90;;;;;;6255240;22;20106;-83
2022/11/01 23:49:02;;;;;;;23.38;6.07;;;6.40;99.90;;;;;;6278572;22;20148;-84
2022/11/01 23:51:52;;;;;;;16.42;6.60;;;6.50;99.90;;;;;;6276411;22;20020;-84
2022/11/01 23:54:41;;;;;;;21.20;6.70;;;6.40;99.90;;;;;;6275829;22;20038;-85
2022/11/01 23:57:29;;;;;;;16.70;7.65;;;6.60;99.90;;;;;;6253405;22;20024;-84
